Time;durP1;ratioP1;P1;durP2;ratioP2;P2;SDS_P1;SDS_P2;PMS_P1;PMS_P2;Temp;Humidity;BMP_temperature;BMP_pressure;BME280_temperature;BME280_humidity;BME280_pressure;Samples;Min_cycle;Max_cycle;Signal;HPM_P1;HPM_P2
2022/07/10 00:00:59;;;;;;;;;;;25.60;36.50;;;;;;1580234;74;1521;-69
2022/07/10 00:03:01;;;;;;;;;;;25.60;36.50;;;;;;1592948;74;760;-70
2022/07/10 00:05:04;;;;;;;;;;;25.60;36.50;;;;;;1570952;74;1106;-69
2022/07/10 00:07:06;;;;;;;;;;;25.50;36.50;;;;;;1574838;74;777;-70
2022/07/10 00:09:08;;;;;;;;;;;25.60;36.50;;;;;;1583725;74;722;-69
2022/07/10 00:11:10;;;;;;;;;;;25.50;36.60;;;;;;1579392;74;708;-69
2022/07/10 00:13:12;;;;;;;;;;;25.50;36.60;;;;;;1578729;74;1974;-69
2022/07/10 00:15:14;;;;;;;;;;;25.50;36.60;;;;;;1575402;74;1596;-70
2022/07/10 00:17:16;;;;;;;;;;;25.50;36.60;;;;;;1583133;74;671;-69
2022/07/10 00:19:18;;;;;;;;;;;25.60;36.60;;;;;;1569105;74;837;-70
2022/07/10 00:21:20;;;;;;;;;;;25.50;36.60;;;;;;1577834;74;705;-69
2022/07/10 00:23:22;;;;;;;;;;;25.50;36.70;;;;;;1572493;74;1132;-69
2022/07/10 00:25:24;;;;;;;;;;;25.50;36.80;;;;;;1590778;74;780;-69
2022/07/10 00:27:26;;;;;;;;;;;25.50;36.70;;;;;;1555640;74;705;-69
2022/07/10 00:29:27;;;;;;;;;;;25.50;36.80;;;;;;1572516;74;1715;-69
2022/07/10 00:31:29;;;;;;;;;;;25.50;36.80;;;;;;1571398;74;751;-69
2022/07/10 00:33:32;;;;;;;;;;;25.50;36.80;;;;;;1581378;74;1938;-69
2022/07/10 00:35:34;;;;;;;;;;;25.50;36.80;;;;;;1553145;74;699;-68
2022/07/10 00:37:36;;;;;;;;;;;25.50;36.80;;;;;;1579082;74;751;-69
2022/07/10 00:39:38;;;;;;;;;;;25.50;36.80;;;;;;1576469;74;727;-68
2022/07/10 00:41:40;;;;;;;;;;;25.60;36.80;;;;;;1561595;74;761;-68
2022/07/10 00:43:56;;;;;;;;;;;25.60;36.80;;;;;;1576795;74;1596;-70
2022/07/10 00:45:58;;;;;;;;;;;25.60;36.70;;;;;;1574377;74;775;-70
2022/07/10 00:48:00;;;;;;;;;;;25.70;36.70;;;;;;1571001;74;800;-70
2022/07/10 00:50:02;;;;;;;;;;;25.70;36.60;;;;;;1582611;74;708;-69
2022/07/10 00:52:04;;;;;;;;;;;25.70;36.70;;;;;;1570099;74;734;-71
2022/07/10 00:54:06;;;;;;;;;;;25.70;36.70;;;;;;1575773;74;1948;-69
2022/07/10 00:56:08;;;;;;;;;;;25.70;36.80;;;;;;1572216;74;1537;-70
2022/07/10 00:58:10;;;;;;;;;;;25.70;36.80;;;;;;1573107;74;707;-69
2022/07/10 01:00:13;;;;;;;;;;;25.70;36.80;;;;;;1583649;74;792;-69
2022/07/10 01:02:15;;;;;;;;;;;25.70;36.80;;;;;;1576850;74;746;-68
2022/07/10 01:04:18;;;;;;;;;;;25.70;36.80;;;;;;1572716;70;229326;-68
2022/07/10 01:06:20;;;;;;;;;;;25.70;36.90;;;;;;1562676;74;728;-65
2022/07/10 01:08:22;;;;;;;;;;;25.70;36.90;;;;;;1570392;75;788;-65
2022/07/10 01:10:24;;;;;;;;;;;25.70;36.80;;;;;;1567968;74;1552;-65
2022/07/10 01:12:26;;;;;;;;;;;25.70;36.80;;;;;;1568370;74;804;-65
2022/07/10 01:14:29;;;;;;;;;;;25.70;36.80;;;;;;1585400;73;1934;-65
2022/07/10 01:16:31;;;;;;;;;;;25.80;36.90;;;;;;1574054;74;741;-64
2022/07/10 01:18:33;;;;;;;;;;;25.70;36.90;;;;;;1583328;74;752;-63
2022/07/10 01:20:35;;;;;;;;;;;25.70;36.90;;;;;;1576529;74;733;-62
2022/07/10 01:22:37;;;;;;;;;;;25.70;37.00;;;;;;1580154;74;769;-65
2022/07/10 01:24:39;;;;;;;;;;;25.70;37.00;;;;;;1580936;74;1548;-65
2022/07/10 01:26:44;;;;;;;;;;;25.70;37.00;;;;;;1566258;74;795;-65
2022/07/10 01:28:47;;;;;;;;;;;25.70;37.10;;;;;;1564749;74;748;-67
2022/07/10 01:30:49;;;;;;;;;;;25.70;37.10;;;;;;1589689;74;771;-65
2022/07/10 01:32:52;;;;;;;;;;;25.70;37.00;;;;;;1590188;74;774;-69
2022/07/10 01:34:54;;;;;;;;;;;25.70;37.10;;;;;;1564863;74;1942;-65
2022/07/10 01:36:56;;;;;;;;;;;25.70;37.10;;;;;;1578686;74;736;-61
2022/07/10 01:38:58;;;;;;;;;;;25.70;37.20;;;;;;1568855;74;1540;-65
2022/07/10 01:40:59;;;;;;;;;;;25.70;37.20;;;;;;1567452;74;723;-64
2022/07/10 01:43:01;;;;;;;;;;;25.70;37.20;;;;;;1569461;74;787;-66
2022/07/10 01:45:04;;;;;;;;;;;25.80;37.30;;;;;;1564758;74;1156;-64
2022/07/10 01:47:06;;;;;;;;;;;25.70;37.20;;;;;;1576681;74;812;-66
2022/07/10 01:49:08;;;;;;;;;;;25.80;37.30;;;;;;1569368;74;774;-64
2022/07/10 01:51:10;;;;;;;;;;;25.80;37.40;;;;;;1572850;74;742;-64
2022/07/10 01:53:12;;;;;;;;;;;25.80;37.40;;;;;;1570002;74;1465;-65
2022/07/10 01:55:14;;;;;;;;;;;25.80;37.30;;;;;;1585301;74;1932;-66
2022/07/10 01:57:16;;;;;;;;;;;25.70;37.40;;;;;;1586363;74;834;-65
2022/07/10 01:59:18;;;;;;;;;;;25.70;37.60;;;;;;1569310;74;755;-65
2022/07/10 02:01:20;;;;;;;;;;;25.70;37.60;;;;;;1562473;74;785;-66
2022/07/10 02:05:42;;;;;;;;;;;25.80;37.60;;;;;;1569196;74;874;-66
2022/07/10 02:07:43;;;;;;;;;;;25.80;37.40;;;;;;1569471;74;1492;-66
2022/07/10 02:09:45;;;;;;;;;;;25.80;37.40;;;;;;1583245;74;798;-65
2022/07/10 02:11:47;;;;;;;;;;;25.80;37.40;;;;;;1570509;74;740;-67
2022/07/10 02:13:49;;;;;;;;;;;25.80;37.70;;;;;;1569385;74;1924;-69
2022/07/10 02:15:51;;;;;;;;;;;25.80;37.80;;;;;;1570262;74;812;-68
2022/07/10 02:17:53;;;;;;;;;;;25.90;37.70;;;;;;1568016;74;757;-69
2022/07/10 02:19:55;;;;;;;;;;;25.90;37.60;;;;;;1567584;74;803;-69
2022/07/10 02:21:57;;;;;;;;;;;25.90;37.70;;;;;;1568362;74;1353;-70
2022/07/10 02:23:58;;;;;;;;;;;25.90;37.60;;;;;;1584083;74;1076;-69
2022/07/10 02:26:00;;;;;;;;;;;25.80;37.80;;;;;;1574289;74;738;-71
2022/07/10 02:28:02;;;;;;;;;;;25.80;37.80;;;;;;1556320;74;690;-71
2022/07/10 02:30:05;;;;;;;;;;;25.80;37.80;;;;;;1549791;74;781;-70
2022/07/10 02:32:07;;;;;;;;;;;25.80;37.80;;;;;;1556940;74;910;-70
2022/07/10 02:34:09;;;;;;;;;;;25.70;37.90;;;;;;1556071;74;1951;-73
2022/07/10 02:36:11;;;;;;;;;;;25.70;37.90;;;;;;1557266;74;1523;-70
2022/07/10 02:38:12;;;;;;;;;;;25.70;37.90;;;;;;1555446;74;799;-70
2022/07/10 02:40:14;;;;;;;;;;;25.70;38.10;;;;;;1552461;74;736;-70
2022/07/10 02:42:16;;;;;;;;;;;25.70;38.00;;;;;;1551341;74;669;-71
2022/07/10 02:44:18;;;;;;;;;;;25.60;38.20;;;;;;1555333;74;1208;-70
2022/07/10 02:46:20;;;;;;;;;;;25.60;38.20;;;;;;1554616;74;740;-70
2022/07/10 02:48:22;;;;;;;;;;;25.60;38.20;;;;;;1553667;74;1502;-70
2022/07/10 02:50:24;;;;;;;;;;;25.50;38.20;;;;;;1556113;74;720;-70
2022/07/10 02:52:26;;;;;;;;;;;25.50;38.40;;;;;;1564341;74;765;-71
2022/07/10 02:54:27;;;;;;;;;;;25.50;38.40;;;;;;1551410;74;1937;-72
2022/07/10 02:56:29;;;;;;;;;;;25.60;38.40;;;;;;1553882;74;724;-72
2022/07/10 02:58:32;;;;;;;;;;;25.50;38.40;;;;;;1552975;74;729;-70
2022/07/10 03:00:33;;;;;;;;;;;25.50;38.40;;;;;;1555794;74;783;-72
2022/07/10 03:02:35;;;;;;;;;;;25.50;38.40;;;;;;1553722;74;1552;-71
2022/07/10 03:04:37;;;;;;;;;;;25.60;38.40;;;;;;1558758;74;1177;-70
2022/07/10 03:06:39;;;;;;;;;;;25.60;38.40;;;;;;1567980;74;796;-70
2022/07/10 03:08:41;;;;;;;;;;;25.60;38.40;;;;;;1555056;74;763;-71
2022/07/10 03:10:43;;;;;;;;;;;25.50;38.50;;;;;;1564174;74;710;-70
2022/07/10 03:12:45;;;;;;;;;;;25.60;38.50;;;;;;1553231;74;725;-71
2022/07/10 03:14:47;;;;;;;;;;;25.60;38.50;;;;;;1549006;74;1951;-71
2022/07/10 03:16:49;;;;;;;;;;;25.60;38.60;;;;;;1554854;74;1563;-70
2022/07/10 03:18:50;;;;;;;;;;;25.50;38.60;;;;;;1551739;74;739;-71
2022/07/10 03:20:52;;;;;;;;;;;25.60;38.60;;;;;;1557872;74;725;-71
2022/07/10 03:22:54;;;;;;;;;;;25.60;38.60;;;;;;1551050;74;733;-70
2022/07/10 03:24:56;;;;;;;;;;;25.50;38.60;;;;;;1560247;74;1141;-69
2022/07/10 03:26:58;;;;;;;;;;;25.50;38.60;;;;;;1557920;74;738;-70
2022/07/10 03:29:00;;;;;;;;;;;25.50;38.60;;;;;;1545083;74;780;-70
2022/07/10 03:31:02;;;;;;;;;;;25.50;38.70;;;;;;1551650;74;1532;-69
2022/07/10 03:33:03;;;;;;;;;;;25.50;38.80;;;;;;1552907;74;790;-69
2022/07/10 03:35:05;;;;;;;;;;;25.50;38.80;;;;;;1554707;74;1951;-67
2022/07/10 03:37:08;;;;;;;;;;;25.50;38.80;;;;;;1553798;74;787;-68
2022/07/10 03:39:09;;;;;;;;;;;25.50;39.00;;;;;;1552882;74;720;-69
2022/07/10 03:41:11;;;;;;;;;;;25.50;39.00;;;;;;1553380;74;776;-70
2022/07/10 03:43:13;;;;;;;;;;;25.50;39.00;;;;;;1545566;74;775;-70
2022/07/10 03:45:15;;;;;;;;;;;25.40;39.00;;;;;;1555642;74;1587;-71
2022/07/10 03:47:17;;;;;;;;;;;25.50;39.10;;;;;;1557499;74;798;-69
2022/07/10 03:49:19;;;;;;;;;;;25.50;39.10;;;;;;1555361;74;770;-70
2022/07/10 03:51:21;;;;;;;;;;;25.50;39.10;;;;;;1554961;74;783;-70
2022/07/10 03:53:23;;;;;;;;;;;25.50;39.10;;;;;;1554663;74;750;-70
2022/07/10 03:55:25;;;;;;;;;;;25.50;39.10;;;;;;1546956;74;1939;-69
2022/07/10 03:59:46;;;;;;;;;;;25.50;39.10;;;;;;1553061;74;1671;-72
2022/07/10 04:01:48;;;;;;;;;;;25.50;39.10;;;;;;1555146;74;736;-71
2022/07/10 04:03:50;;;;;;;;;;;25.50;39.20;;;;;;1559525;74;1182;-70
2022/07/10 04:05:52;;;;;;;;;;;25.50;39.30;;;;;;1558848;74;809;-72
2022/07/10 04:07:54;;;;;;;;;;;25.50;39.20;;;;;;1551449;74;751;-70
2022/07/10 04:09:56;;;;;;;;;;;25.50;39.30;;;;;;1560439;74;873;-70
2022/07/10 04:11:58;;;;;;;;;;;25.60;39.30;;;;;;1556420;74;958;-69
2022/07/10 04:14:00;;;;;;;;;;;25.60;39.30;;;;;;1556296;74;1595;-69
2022/07/10 04:16:03;;;;;;;;;;;25.60;39.40;;;;;;1554993;74;1933;-69
2022/07/10 04:18:05;;;;;;;;;;;25.60;39.50;;;;;;1555716;74;756;-69
2022/07/10 04:20:07;;;;;;;;;;;25.60;39.50;;;;;;1555768;74;810;-66
2022/07/10 04:22:09;;;;;;;;;;;25.60;39.50;;;;;;1547933;74;816;-68
2022/07/10 04:24:10;;;;;;;;;;;25.70;39.50;;;;;;1555637;74;1166;-67
2022/07/10 04:26:12;;;;;;;;;;;25.70;39.50;;;;;;1558359;74;750;-67
2022/07/10 04:28:14;;;;;;;;;;;25.80;39.30;;;;;;1547726;74;1581;-69
2022/07/10 04:30:16;;;;;;;;;;;25.90;39.20;;;;;;1549466;74;815;-69
2022/07/10 04:32:18;;;;;;;;;;;25.80;39.20;;;;;;1563252;74;749;-69
2022/07/10 04:34:20;;;;;;;;;;;25.90;39.20;;;;;;1557241;74;1966;-69
2022/07/10 04:36:22;;;;;;;;;;;25.90;39.20;;;;;;1556135;74;738;-69
2022/07/10 04:38:24;;;;;;;;;;;25.90;39.20;;;;;;1567126;74;722;-68
2022/07/10 04:40:26;;;;;;;;;;;25.90;39.10;;;;;;1580968;74;686;-68
2022/07/10 04:42:27;;;;;;;;;;;26.00;39.60;;;;;;1563482;74;1581;-70
2022/07/10 04:44:29;;;;;;;;;;;25.90;39.00;;;;;;1564407;74;1196;-69
2022/07/10 04:46:31;;;;;;;;;;;26.00;39.60;;;;;;1558408;74;724;-71
2022/07/10 04:48:33;;;;;;;;;;;26.00;39.60;;;;;;1547355;74;779;-73
2022/07/10 04:50:35;;;;;;;;;;;25.90;39.10;;;;;;1554812;74;677;-72
2022/07/10 04:52:37;;;;;;;;;;;25.90;39.10;;;;;;1551748;74;721;-70
2022/07/10 04:54:39;;;;;;;;;;;25.90;39.00;;;;;;1557797;74;1948;-71
2022/07/10 04:56:40;;;;;;;;;;;25.90;39.00;;;;;;1557467;74;1606;-71
2022/07/10 04:58:42;;;;;;;;;;;26.00;39.60;;;;;;1554498;74;743;-65
2022/07/10 05:00:44;;;;;;;;;;;26.00;39.70;;;;;;1554176;74;674;-68
2022/07/10 05:02:46;;;;;;;;;;;25.90;39.00;;;;;;1556216;74;814;-68
2022/07/10 05:04:48;;;;;;;;;;;26.00;39.60;;;;;;1562327;74;1161;-67
2022/07/10 05:06:50;;;;;;;;;;;25.90;39.10;;;;;;1556682;74;817;-68
2022/07/10 05:08:53;;;;;;;;;;;25.90;39.10;;;;;;1556267;74;683;-67
2022/07/10 05:10:55;;;;;;;;;;;25.90;39.10;;;;;;1562443;74;1857;-67
2022/07/10 05:12:57;;;;;;;;;;;25.90;39.10;;;;;;1552773;73;799;-70
2022/07/10 05:14:59;;;;;;;;;;;25.90;39.20;;;;;;1561430;74;1939;-68
2022/07/10 05:17:01;;;;;;;;;;;25.90;39.20;;;;;;1559906;74;775;-69
2022/07/10 05:19:03;;;;;;;;;;;25.80;39.80;;;;;;1560271;74;768;-68
2022/07/10 05:21:05;;;;;;;;;;;25.90;39.20;;;;;;1552719;74;754;-69
2022/07/10 05:23:07;;;;;;;;;;;25.90;39.30;;;;;;1556966;74;1544;-69
2022/07/10 05:25:09;;;;;;;;;;;25.90;39.20;;;;;;1556060;74;1149;-68
2022/07/10 05:27:11;;;;;;;;;;;26.00;39.70;;;;;;1555844;74;762;-67
2022/07/10 05:29:13;;;;;;;;;;;25.90;39.20;;;;;;1560438;74;767;-68
2022/07/10 05:31:15;;;;;;;;;;;25.90;39.20;;;;;;1560678;74;744;-68
2022/07/10 05:33:17;;;;;;;;;;;25.90;39.00;;;;;;1550209;74;786;-68
2022/07/10 05:35:19;;;;;;;;;;;26.00;39.50;;;;;;1554861;74;1959;-68
2022/07/10 05:37:20;;;;;;;;;;;25.90;38.90;;;;;;1561229;74;1573;-68
2022/07/10 05:39:25;;;;;;;;;;;26.00;39.40;;;;;;1559385;74;714;-67
2022/07/10 05:41:26;;;;;;;;;;;26.00;39.40;;;;;;1552312;74;1695;-67
2022/07/10 05:43:28;;;;;;;;;;;26.00;39.40;;;;;;1565411;74;785;-68
2022/07/10 05:45:30;;;;;;;;;;;26.00;39.40;;;;;;1561013;74;1061;-70
2022/07/10 05:47:33;;;;;;;;;;;26.00;39.30;;;;;;1558642;74;771;-68
2022/07/10 05:49:34;;;;;;;;;;;26.00;39.50;;;;;;1559736;74;686;-71
2022/07/10 05:51:36;;;;;;;;;;;26.00;39.40;;;;;;1551444;74;1489;-70
2022/07/10 05:53:38;;;;;;;;;;;26.00;39.60;;;;;;1550719;74;1154;-70
2022/07/10 05:55:40;;;;;;;;;;;26.00;39.50;;;;;;1558507;74;1924;-69
2022/07/10 05:57:42;;;;;;;;;;;26.00;39.40;;;;;;1554183;74;771;-68
2022/07/10 05:59:44;;;;;;;;;;;26.00;39.40;;;;;;1559512;74;786;-69
2022/07/10 06:01:46;;;;;;;;;;;26.00;39.40;;;;;;1559738;74;824;-68
2022/07/10 06:03:48;;;;;;;;;;;26.00;39.40;;;;;;1572221;74;1229;-67
2022/07/10 06:05:50;;;;;;;;;;;26.10;39.40;;;;;;1557367;74;1608;-70
2022/07/10 06:07:51;;;;;;;;;;;26.00;39.70;;;;;;1587145;74;824;-65
2022/07/10 06:09:54;;;;;;;;;;;26.00;39.60;;;;;;1563537;74;757;-65
2022/07/10 06:11:56;;;;;;;;;;;26.10;39.40;;;;;;1572530;74;708;-65
2022/07/10 06:13:58;;;;;;;;;;;26.00;39.40;;;;;;1586094;74;1151;-65
2022/07/10 06:15:59;;;;;;;;;;;25.90;38.90;;;;;;1555557;74;1920;-64
2022/07/10 06:18:01;;;;;;;;;;;25.90;38.90;;;;;;1581702;74;686;-64
2022/07/10 06:20:03;;;;;;;;;;;25.90;38.90;;;;;;1579336;74;1597;-64
2022/07/10 06:24:25;;;;;;;;;;;25.80;39.20;;;;;;1573050;74;1654;-65
2022/07/10 06:26:27;;;;;;;;;;;25.70;39.30;;;;;;1584786;74;715;-67
2022/07/10 06:28:29;;;;;;;;;;;25.70;39.40;;;;;;1557921;74;740;-69
2022/07/10 06:30:31;;;;;;;;;;;25.70;39.40;;;;;;1568371;74;665;-68
2022/07/10 06:32:33;;;;;;;;;;;25.70;39.60;;;;;;1573873;74;539;-64
2022/07/10 06:34:35;;;;;;;;;;;25.60;39.70;;;;;;1571586;74;1561;-62
2022/07/10 06:36:37;;;;;;;;;;;25.70;39.70;;;;;;1555860;74;1966;-63
2022/07/10 06:38:38;;;;;;;;;;;25.60;39.70;;;;;;1571199;74;606;-67
2022/07/10 06:40:41;;;;;;;;;;;25.50;39.80;;;;;;1568250;74;751;-66
2022/07/10 06:42:43;;;;;;;;;;;25.50;39.90;;;;;;1573543;74;821;-66
2022/07/10 06:44:45;;;;;;;;;;;25.50;40.00;;;;;;1568989;74;1136;-68
2022/07/10 06:47:55;;;;;;;;;;;25.60;40.50;;;;;;1572419;74;753;-65
2022/07/10 06:48:50;;;;;;;;;;;25.50;41.00;;;;;;1559324;74;1610;-65
2022/07/10 06:50:52;;;;;;;;;;;25.60;40.50;;;;;;1562232;74;732;-67
2022/07/10 06:52:54;;;;;;;;;;;25.60;40.50;;;;;;1571208;74;651;-66
2022/07/10 06:54:56;;;;;;;;;;;25.70;40.80;;;;;;1572925;74;1140;-67
2022/07/10 06:56:58;;;;;;;;;;;25.70;41.80;;;;;;1570753;74;1938;-71
2022/07/10 06:58:59;;;;;;;;;;;25.70;40.50;;;;;;1564298;74;793;-64
2022/07/10 07:01:01;;;;;;;;;;;25.70;40.40;;;;;;1571574;74;719;-65
2022/07/10 07:03:03;;;;;;;;;;;25.70;40.30;;;;;;1556017;74;1595;-68
2022/07/10 07:05:05;;;;;;;;;;;25.70;40.40;;;;;;1565021;74;1216;-66
2022/07/10 07:07:07;;;;;;;;;;;25.70;40.40;;;;;;1566490;74;783;-66
2022/07/10 07:09:09;;;;;;;;;;;25.80;40.50;;;;;;1572127;74;803;-65
2022/07/10 07:11:11;;;;;;;;;;;25.70;40.40;;;;;;1564838;74;765;-65
2022/07/10 07:13:13;;;;;;;;;;;25.70;40.50;;;;;;1573350;71;2064;-64
2022/07/10 07:15:16;;;;;;;;;;;25.70;40.50;;;;;;1583867;73;737;-62
2022/07/10 07:17:22;;;;;;;;;;;25.80;40.70;;;;;;1577831;75;1592;-66
2022/07/10 07:19:30;;;;;;;;;;;25.80;40.60;;;;;;1586849;74;713;-64
2022/07/10 07:23:47;;;;;;;;;;;25.80;40.60;;;;;;1574229;73;1644;-63
2022/07/10 07:25:49;;;;;;;;;;;25.80;40.50;;;;;;1589179;73;725;-62
2022/07/10 07:27:51;;;;;;;;;;;25.90;40.40;;;;;;1598033;73;710;-61
2022/07/10 07:29:53;;;;;;;;;;;25.90;40.20;;;;;;1582670;73;1450;-63
2022/07/10 07:31:55;;;;;;;;;;;25.70;40.30;;;;;;1581746;73;800;-63
2022/07/10 07:33:57;;;;;;;;;;;25.70;40.40;;;;;;1602343;73;1258;-64
2022/07/10 07:35:59;;;;;;;;;;;25.70;40.40;;;;;;1590839;73;1933;-66
2022/07/10 07:38:01;;;;;;;;;;;25.70;41.10;;;;;;1576336;73;621;-64
2022/07/10 07:40:05;;;;;;;;;;;25.70;40.70;;;;;;1579604;73;733;-64
2022/07/10 07:42:07;;;;;;;;;;;25.70;40.70;;;;;;1575216;73;614;-63
2022/07/10 07:44:09;;;;;;;;;;;25.70;40.80;;;;;;1586061;72;1474;-62
2022/07/10 07:46:10;;;;;;;;;;;25.70;40.90;;;;;;1578682;73;760;-61
2022/07/10 07:48:12;;;;;;;;;;;25.70;40.70;;;;;;1597380;73;728;-63
2022/07/10 07:50:15;;;;;;;;;;;25.70;40.70;;;;;;1593323;73;633;-64
2022/07/10 07:52:17;;;;;;;;;;;25.70;40.70;;;;;;1576066;73;709;-66
2022/07/10 07:54:19;;;;;;;;;;;25.70;40.90;;;;;;1591975;73;1201;-67
2022/07/10 07:56:20;;;;;;;;;;;25.70;40.90;;;;;;1597104;73;1933;-69
2022/07/10 07:58:22;;;;;;;;;;;25.60;40.90;;;;;;1597407;73;1459;-66
2022/07/10 08:00:25;;;;;;;;;;;25.60;40.90;;;;;;1582691;73;700;-65
2022/07/10 08:02:26;;;;;;;;;;;25.50;41.00;;;;;;1573822;73;752;-66
2022/07/10 08:04:28;;;;;;;;;;;25.60;41.10;;;;;;1584175;73;1175;-66
2022/07/10 08:06:30;;;;;;;;;;;25.50;41.20;;;;;;1578986;73;682;-66
2022/07/10 08:08:32;;;;;;;;;;;25.50;41.20;;;;;;1576985;73;691;-66
2022/07/10 08:10:34;;;;;;;;;;;25.50;41.30;;;;;;1583624;73;692;-66
2022/07/10 08:12:36;;;;;;;;;;;25.50;41.30;;;;;;1574588;73;1454;-67
2022/07/10 08:14:38;;;;;;;;;;;25.40;41.30;;;;;;1570567;73;1128;-68
2022/07/10 08:16:40;;;;;;;;;;;25.50;41.50;;;;;;1581924;73;1935;-67
2022/07/10 08:18:42;;;;;;;;;;;25.60;41.30;;;;;;1576979;73;716;-67
2022/07/10 08:20:44;;;;;;;;;;;25.60;41.30;;;;;;1591444;73;657;-69
2022/07/10 08:22:46;;;;;;;;;;;25.70;41.50;;;;;;1596082;73;739;-63
2022/07/10 08:24:48;;;;;;;;;;;25.80;41.50;;;;;;1588996;73;1120;-66
2022/07/10 08:26:50;;;;;;;;;;;25.70;41.60;;;;;;1584218;73;1194;-66
2022/07/10 08:28:52;;;;;;;;;;;25.80;41.50;;;;;;1565678;73;788;-65
2022/07/10 08:30:54;;;;;;;;;;;25.80;41.40;;;;;;1565629;73;747;-65
2022/07/10 08:32:56;;;;;;;;;;;25.70;41.20;;;;;;1567812;73;747;-64
2022/07/10 08:35:03;;;;;;;;;;;25.70;41.20;;;;;;1565137;73;1161;-65
2022/07/10 08:37:01;;;;;;;;;;;25.70;41.20;;;;;;1562209;73;1925;-63
2022/07/10 08:39:03;;;;;;;;;;;25.60;41.10;;;;;;1570674;73;735;-66
2022/07/10 08:41:05;;;;;;;;;;;25.60;41.00;;;;;;1570821;73;1357;-62
2022/07/10 08:43:08;;;;;;;;;;;25.50;41.00;;;;;;1562481;73;1130;-64
2022/07/10 08:45:11;;;;;;;;;;;25.60;40.90;;;;;;1562998;73;788;-65
2022/07/10 08:47:13;;;;;;;;;;;25.60;40.80;;;;;;1571364;73;732;-65
2022/07/10 08:49:15;;;;;;;;;;;25.50;40.80;;;;;;1564350;73;584;-65
2022/07/10 08:51:18;;;;;;;;;;;25.50;40.70;;;;;;1562778;73;812;-65
2022/07/10 08:53:30;;;;;;;;;;;25.50;40.70;;;;;;1578949;73;1150;-63
2022/07/10 08:55:32;;;;;;;;;;;25.60;40.70;;;;;;1574648;73;1621;-64
2022/07/10 08:57:34;;;;;;;;;;;25.60;40.80;;;;;;1577065;73;1930;-64
2022/07/10 08:59:36;;;;;;;;;;;25.60;40.70;;;;;;1588782;73;733;-65
2022/07/10 09:01:38;;;;;;;;;;;25.70;40.60;;;;;;1587904;73;671;-65
2022/07/10 09:03:40;;;;;;;;;;;25.70;40.60;;;;;;1579687;73;1177;-64
2022/07/10 09:05:42;;;;;;;;;;;25.70;40.40;;;;;;1566587;74;776;-61
2022/07/10 09:07:44;;;;;;;;;;;25.70;40.20;;;;;;1576004;73;781;-64
2022/07/10 09:09:54;;;;;;;;;;;25.70;40.20;;;;;;1585064;73;1330;-64
2022/07/10 09:11:57;;;;;;;;;;;25.70;40.70;;;;;;1581240;73;901;-65
2022/07/10 09:14:02;;;;;;;;;;;25.80;40.30;;;;;;1578949;73;1162;-64
2022/07/10 09:16:04;;;;;;;;;;;25.70;40.20;;;;;;1574981;73;1920;-65
2022/07/10 09:18:07;;;;;;;;;;;25.70;40.10;;;;;;1576139;73;793;-64
2022/07/10 09:20:09;;;;;;;;;;;25.60;40.20;;;;;;1585293;73;740;-65
2022/07/10 09:22:11;;;;;;;;;;;25.60;40.20;;;;;;1538171;75;1503;-65
2022/07/10 09:24:13;;;;;;;;;;;25.60;40.20;;;;;;1579076;73;1162;-64
2022/07/10 09:26:15;;;;;;;;;;;25.50;40.30;;;;;;1580457;73;827;-65
2022/07/10 09:28:17;;;;;;;;;;;25.50;40.20;;;;;;1571903;73;721;-62
2022/07/10 09:30:36;;;;;;;;;;;25.50;40.20;;;;;;1566381;73;830;-64
2022/07/10 09:32:38;;;;;;;;;;;25.50;40.00;;;;;;1577328;73;772;-65
2022/07/10 09:34:42;;;;;;;;;;;25.40;40.00;;;;;;1570687;73;1120;-64
2022/07/10 09:36:44;;;;;;;;;;;25.40;39.80;;;;;;1564192;73;1936;-65
2022/07/10 09:38:48;;;;;;;;;;;25.40;39.70;;;;;;1573117;73;827;-64
2022/07/10 09:40:50;;;;;;;;;;;25.40;39.40;;;;;;1578561;73;682;-64
2022/07/10 09:42:52;;;;;;;;;;;25.30;39.40;;;;;;1580473;73;737;-62
2022/07/10 09:44:55;;;;;;;;;;;25.30;39.20;;;;;;1555809;75;1046;-64
2022/07/10 09:46:57;;;;;;;;;;;25.20;39.10;;;;;;1591889;73;1624;-63
2022/07/10 09:49:10;;;;;;;;;;;25.20;39.10;;;;;;1589923;73;632;-64
2022/07/10 09:51:12;;;;;;;;;;;25.20;38.90;;;;;;1587279;73;2008;-65
2022/07/10 09:53:14;;;;;;;;;;;25.20;38.90;;;;;;1570914;73;1137;-64
2022/07/10 09:55:16;;;;;;;;;;;25.20;38.90;;;;;;1571888;73;696;-64
2022/07/10 09:57:18;;;;;;;;;;;25.10;38.80;;;;;;1581536;73;1934;-65
2022/07/10 09:59:20;;;;;;;;;;;25.20;38.80;;;;;;1568729;73;730;-66
2022/07/10 10:01:23;;;;;;;;;;;25.10;38.70;;;;;;1589408;73;803;-69
2022/07/10 10:03:25;;;;;;;;;;;25.20;38.60;;;;;;1571765;73;1177;-70
2022/07/10 10:05:28;;;;;;;;;;;25.10;38.60;;;;;;1588939;73;1481;-71
2022/07/10 10:07:30;;;;;;;;;;;25.10;38.60;;;;;;1571737;73;685;-71
2022/07/10 10:09:42;;;;;;;;;;;25.10;38.60;;;;;;1579226;73;801;-71
2022/07/10 10:11:45;;;;;;;;;;;25.10;38.50;;;;;;1582991;73;729;-71
2022/07/10 10:13:47;;;;;;;;;;;25.10;38.50;;;;;;1576179;73;1183;-73
2022/07/10 10:15:49;;;;;;;;;;;25.00;38.50;;;;;;1580509;73;794;-70
2022/07/10 10:17:51;;;;;;;;;;;25.10;38.40;;;;;;1574945;73;1945;-72
2022/07/10 10:22:13;;;;;;;;;;;25.00;38.30;;;;;;1586609;73;1631;-72
2022/07/10 10:24:15;;;;;;;;;;;25.00;38.10;;;;;;1578504;73;1209;-71
2022/07/10 10:26:17;;;;;;;;;;;25.00;38.10;;;;;;1577436;73;703;-71
2022/07/10 10:28:28;;;;;;;;;;;25.00;38.00;;;;;;1584012;74;721;-71
2022/07/10 10:30:23;;;;;;;;;;;25.00;38.00;;;;;;1567026;73;1328;-71
2022/07/10 10:32:25;;;;;;;;;;;25.00;37.90;;;;;;1584900;73;1540;-66
2022/07/10 10:34:34;;;;;;;;;;;25.00;37.90;;;;;;1584813;73;1123;-67
2022/07/10 10:36:47;;;;;;;;;;;24.90;37.90;;;;;;1559027;73;1926;-66
2022/07/10 10:38:55;;;;;;;;;;;24.90;37.90;;;;;;1578351;73;731;-66
2022/07/10 10:40:58;;;;;;;;;;;24.90;37.70;;;;;;1576387;73;1485;-67
2022/07/10 10:43:02;;;;;;;;;;;24.90;37.70;;;;;;1533099;75;1151;-65
2022/07/10 10:45:22;;;;;;;;;;;24.90;37.60;;;;;;1577223;74;1737;-64
2022/07/10 10:47:26;;;;;;;;;;;24.90;37.50;;;;;;1584810;73;1449;-65
2022/07/10 10:49:27;;;;;;;;;;;24.90;37.50;;;;;;1581204;73;1043;-63
2022/07/10 10:51:31;;;;;;;;;;;24.90;37.60;;;;;;1597144;73;709;-66
2022/07/10 10:53:33;;;;;;;;;;;24.80;37.40;;;;;;1599522;73;1632;-65
2022/07/10 10:55:35;;;;;;;;;;;24.80;37.60;;;;;;1575220;73;705;-66
2022/07/10 10:57:44;;;;;;;;;;;24.90;37.70;;;;;;1572811;73;1932;-67
2022/07/10 10:59:48;;;;;;;;;;;24.80;37.60;;;;;;1578684;73;1632;-66
2022/07/10 11:01:52;;;;;;;;;;;24.80;37.60;;;;;;1587677;73;1445;-65
2022/07/10 11:04:07;;;;;;;;;;;24.80;37.60;;;;;;1576765;73;1873;-65
2022/07/10 11:06:09;;;;;;;;;;;24.80;37.60;;;;;;1589660;73;731;-67
2022/07/10 11:08:11;;;;;;;;;;;24.80;37.60;;;;;;1531965;75;745;-67
2022/07/10 11:10:32;;;;;;;;;;;24.80;37.60;;;;;;1572114;73;694;-67
2022/07/10 11:12:35;;;;;;;;;;;24.80;37.60;;;;;;1570801;73;782;-66
2022/07/10 11:14:39;;;;;;;;;;;24.80;37.60;;;;;;1572937;73;1550;-64
2022/07/10 11:16:42;;;;;;;;;;;24.80;37.40;;;;;;1582812;73;1914;-65
2022/07/10 11:18:44;;;;;;;;;;;24.80;37.40;;;;;;1572715;73;2005;-67
2022/07/10 11:20:51;;;;;;;;;;;24.80;37.30;;;;;;1597346;73;783;-69
2022/07/10 11:22:55;;;;;;;;;;;24.80;37.30;;;;;;1597531;73;1266;-65
2022/07/10 11:25:04;;;;;;;;;;;24.80;37.30;;;;;;1582752;73;1111;-65
2022/07/10 11:27:16;;;;;;;;;;;24.70;37.20;;;;;;1579093;73;600;-64
2022/07/10 11:29:18;;;;;;;;;;;24.80;37.30;;;;;;1577724;73;1456;-64
2022/07/10 11:31:20;;;;;;;;;;;24.70;37.30;;;;;;1565575;73;665;-64
2022/07/10 11:33:22;;;;;;;;;;;24.70;37.30;;;;;;1579720;73;1162;-65
2022/07/10 11:35:24;;;;;;;;;;;24.70;37.10;;;;;;1576743;73;733;-64
2022/07/10 11:37:29;;;;;;;;;;;24.70;37.00;;;;;;1578248;73;1921;-65
2022/07/10 11:39:30;;;;;;;;;;;24.70;36.90;;;;;;1581492;73;1651;-65
2022/07/10 11:41:31;;;;;;;;;;;24.70;36.70;;;;;;1583930;73;787;-63
2022/07/10 11:43:33;;;;;;;;;;;24.70;36.60;;;;;;1581103;73;1571;-62
2022/07/10 11:45:38;;;;;;;;;;;24.60;36.40;;;;;;1585345;73;779;-64
2022/07/10 11:47:40;;;;;;;;;;;24.70;36.50;;;;;;1572997;73;699;-66
2022/07/10 11:49:47;;;;;;;;;;;24.70;36.50;;;;;;1581037;73;698;-63
2022/07/10 11:51:49;;;;;;;;;;;24.60;36.30;;;;;;1575269;73;773;-65
2022/07/10 11:53:54;;;;;;;;;;;24.60;36.40;;;;;;1590909;73;1135;-64
2022/07/10 11:55:56;;;;;;;;;;;24.60;36.40;;;;;;1574669;73;676;-65
2022/07/10 11:57:57;;;;;;;;;;;24.60;36.50;;;;;;1578208;73;1925;-65
2022/07/10 11:59:59;;;;;;;;;;;24.70;36.60;;;;;;1579439;73;771;-61
2022/07/10 12:02:01;;;;;;;;;;;24.70;36.60;;;;;;1580075;73;744;-66
2022/07/10 12:04:05;;;;;;;;;;;24.60;36.50;;;;;;1589954;73;1135;-64
2022/07/10 12:06:07;;;;;;;;;;;24.60;36.40;;;;;;1580467;73;997;-65
2022/07/10 12:08:08;;;;;;;;;;;24.60;36.50;;;;;;1588797;73;733;-64
2022/07/10 12:10:10;;;;;;;;;;;24.60;36.40;;;;;;1574591;73;669;-67
2022/07/10 12:12:12;;;;;;;;;;;24.60;36.30;;;;;;1586468;73;1493;-65
2022/07/10 12:14:22;;;;;;;;;;;24.60;36.30;;;;;;1589158;73;1196;-64
2022/07/10 12:16:24;;;;;;;;;;;24.60;36.20;;;;;;1575728;73;961;-64
2022/07/10 12:18:28;;;;;;;;;;;24.60;36.10;;;;;;1578034;73;1889;-64
2022/07/10 12:20:29;;;;;;;;;;;24.60;36.20;;;;;;1581984;73;1209;-64
2022/07/10 12:22:31;;;;;;;;;;;24.60;36.20;;;;;;1591011;73;726;-65